Stations météo

réclame
Mon MeteoGroup
Carrion de los Condes, Espagne (8068): Température de l'air & dewpoint: 16.06.2018 09:00:00 - 22.06.2018 09:00:00 (CEST)Carrion de los Condes, Espagne (8068): Vitesse du vent & gusts: 16.06.2018 09:00:00 - 22.06.2018 09:00:00 (CEST)Carrion de los Condes, Espagne (8068): Direction du vent: 16.06.2018 09:00:00 - 22.06.2018 09:00:00 (CEST)Carrion de los Condes, Espagne (8068): visibility: 16.06.2018 09:00:00 - 22.06.2018 09:00:00 (CEST)Carrion de los Condes, Espagne (8068): Ensoleillement: 16.06.2018 09:00:00 - 22.06.2018 09:00:00 (CEST)Carrion de los Condes, Espagne (8068): Quantités de précipitations: 16.06.2018 09:00:00 - 22.06.2018 09:00:00 (CEST)
Date & Time tt [°C] td [°C] ff [km/h] ff [knt] fx [km/h] fx [knt] dd vv [km] sd [min] rr [mm]
22.06.2018 09:00:00 19,0 14,4 10 5 36 19 ENE 20 48 0,0
22.06.2018 08:00:00 16,8 14,0 13 7 34 18 NE 17 0 -
22.06.2018 07:00:00 16,1 14,6 14 8 29 15 NE 15 0 0,0
22.06.2018 06:00:00 15,4 14,2 8 5 - - ENE 14 - -
22.06.2018 05:00:00 15,5 14,0 8 4 26 14 NE 19 0 0,0
22.06.2018 04:00:00 15,7 13,4 9 5 28 15 NE 20 0 0,0
22.06.2018 03:00:00 16,3 13,6 14 8 31 17 NE 18 0 0,0
22.06.2018 02:00:00 16,4 13,5 10 5 33 18 NE 20 0 -
22.06.2018 01:00:00 17,0 13,6 13 7 31 17 NE 16 0 0,0
22.06.2018 00:00:00 17,7 13,7 14 7 39 21 NE 18 0 0,0
21.06.2018 23:00:00 18,4 13,7 14 7 39 21 NE 15 0 0,0
21.06.2018 22:00:00 19,4 13,8 16 9 40 21 NE 12 0 0,0
21.06.2018 21:00:00 21,6 15,0 13 7 37 20 NNE 20 0 0,0
21.06.2018 20:00:00 24,1 15,3 12 7 51 27 NE 20 0 -
21.06.2018 19:00:00 26,1 13,9 8 4 53 29 NE 20 18 0,0
21.06.2018 18:00:00 28,7 13,4 10 6 22 12 NNE 14 36 0,0
21.06.2018 17:00:00 30,0 12,0 9 5 25 14 NE 20 60 0,0
21.06.2018 16:00:00 30,3 10,8 7 4 20 11 E 20 60 0,0
21.06.2018 15:00:00 29,0 11,6 7 4 20 11 NNE 16 60 0,0
21.06.2018 14:00:00 28,3 14,5 8 4 19 10 NE 20 60 -
21.06.2018 13:00:00 27,2 13,2 6 3 25 13 E 18 58 0,0
21.06.2018 12:00:00 26,0 14,4 8 4 51 28 NE 11 51 0,0
21.06.2018 11:00:00 22,7 14,2 6 3 14 7 NNE 17 15 0,0
21.06.2018 10:00:00 22,1 14,2 5 3 - - E 20 45 0,0
21.06.2018 09:00:00 19,8 14,4 6 3 20 11 NNE 20 15 0,0
21.06.2018 08:00:00 19,6 14,4 5 3 18 10 NE 20 17 -
21.06.2018 07:00:00 17,6 13,9 5 3 18 10 NE 20 0 0,0
21.06.2018 06:00:00 18,5 13,8 12 7 26 14 N 20 0 0,2
21.06.2018 05:00:00 17,9 15,0 4 2 11 6 N 20 0 0,0
21.06.2018 04:00:00 19,1 13,8 7 4 16 9 S 20 0 0,0
21.06.2018 03:00:00 19,3 12,7 7 4 21 12 S 20 0 0,0
21.06.2018 02:00:00 19,7 12,7 8 4 22 12 NNE 20 0 -
21.06.2018 01:00:00 20,2 13,0 11 6 24 13 NE 20 0 0,0
21.06.2018 00:00:00 20,7 12,6 10 5 27 14 NNE 20 0 0,0
20.06.2018 23:00:00 21,8 14,2 10 5 21 11 NNE 20 0 0,0
20.06.2018 22:00:00 23,3 14,8 9 5 19 10 NNE 20 0 0,0
20.06.2018 21:00:00 26,9 14,3 5 3 11 6 NNE 20 0 0,0
20.06.2018 20:00:00 29,6 10,2 3 2 10 6 NE 20 49 -
20.06.2018 19:00:00 30,8 11,2 2 1 15 8 NNE 20 60 0,0
20.06.2018 18:00:00 30,5 9,4 3 2 10 6 NE 20 60 0,0
20.06.2018 17:00:00 30,4 8,8 3 2 12 7 WNW 20 60 0,0
20.06.2018 16:00:00 30,3 11,3 5 3 16 9 SE 20 60 0,0
20.06.2018 15:00:00 29,6 12,5 3 1 11 6 SE 20 60 0,0
20.06.2018 14:00:00 28,9 12,3 4 2 13 7 WSW 20 60 -
20.06.2018 13:00:00 27,7 12,5 3 2 9 5 N 20 60 0,0
20.06.2018 12:00:00 26,8 13,6 3 2 9 5 ESE 20 60 0,0
20.06.2018 11:00:00 24,4 14,2 4 2 10 5 NE 20 60 0,0
20.06.2018 10:00:00 22,3 13,7 3 2 9 5 NNE 20 60 0,0
20.06.2018 09:00:00 19,6 14,6 4 2 10 5 ENE 20 60 0,0
20.06.2018 08:00:00 15,8 14,3 2 1 51 27 NE 20 31 -
20.06.2018 07:00:00 12,7 11,8 1 1 4 2 NE 15 0 0,0
20.06.2018 06:00:00 13,3 12,3 2 1 - - NNE 20 - -
20.06.2018 05:00:00 14,0 13,3 4 2 11 6 N 20 0 0,0
20.06.2018 04:00:00 13,4 12,3 1 1 7 4 NE 20 0 0,0
20.06.2018 03:00:00 14,1 12,1 1 1 5 3 N 20 0 0,0
20.06.2018 02:00:00 15,3 12,6 3 1 10 6 NNW 20 0 -
20.06.2018 01:00:00 16,8 13,2 5 3 13 7 NE 20 0 0,0
20.06.2018 00:00:00 17,6 13,4 6 4 16 9 NE 20 0 0,0
19.06.2018 23:00:00 18,3 13,9 4 2 10 5 NNE 20 0 0,0
19.06.2018 22:00:00 21,4 15,3 2 1 10 6 N 20 0 0,0
19.06.2018 21:00:00 23,8 13,4 4 2 9 5 N 20 0 0,0
19.06.2018 20:00:00 25,8 11,2 5 3 - - N 20 - -
19.06.2018 19:00:00 27,2 9,9 3 2 16 9 E 20 60 0,0
19.06.2018 18:00:00 26,8 9,7 6 3 19 10 ESE 20 60 0,0
19.06.2018 17:00:00 26,1 11,1 9 5 20 11 E 20 60 0,0
19.06.2018 16:00:00 25,1 11,3 10 6 26 14 E 20 60 0,0
19.06.2018 15:00:00 23,4 10,8 8 5 25 14 E 20 60 0,0
19.06.2018 14:00:00 22,1 11,2 9 5 24 13 ENE 20 60 -
19.06.2018 13:00:00 20,9 11,2 10 5 31 17 E 20 60 0,0
19.06.2018 12:00:00 19,5 10,8 11 6 33 18 ENE 20 60 0,0
19.06.2018 11:00:00 18,2 10,8 12 6 32 17 E 20 60 0,0
19.06.2018 10:00:00 16,5 10,5 13 7 32 18 ENE 20 60 0,0
19.06.2018 09:00:00 15,5 10,6 10 6 28 15 ENE 20 60 0,0
19.06.2018 08:00:00 13,7 10,6 11 6 - - ENE 20 - -
19.06.2018 07:00:00 12,8 10,5 8 5 26 14 ENE 20 0 0,0
19.06.2018 06:00:00 12,8 11,2 11 6 31 17 E 20 0 0,0
19.06.2018 05:00:00 12,0 11,3 4 2 16 8 ENE 20 0 0,0
19.06.2018 04:00:00 11,7 10,9 6 4 16 9 NNE 20 0 0,0
19.06.2018 03:00:00 11,7 10,8 3 2 14 8 E 20 0 0,0
19.06.2018 02:00:00 12,3 11,0 4 2 13 7 NNE 20 0 -
19.06.2018 01:00:00 12,7 10,4 5 3 22 12 NE 20 0 0,0
19.06.2018 00:00:00 13,7 10,6 7 4 24 13 ENE 20 0 0,0
18.06.2018 23:00:00 14,5 10,9 11 6 34 19 ENE 20 0 0,0
18.06.2018 22:00:00 15,4 11,0 11 6 38 20 ENE 20 0 0,0
18.06.2018 21:00:00 17,6 11,2 15 8 43 23 ENE 20 0 0,0
18.06.2018 20:00:00 20,9 11,2 15 8 36 19 E 20 50 -
18.06.2018 19:00:00 23,4 11,8 11 6 34 19 ENE 20 60 0,0
18.06.2018 18:00:00 24,3 12,5 13 7 34 18 ENE 20 60 0,0
18.06.2018 17:00:00 24,7 13,0 11 6 30 16 E 20 60 0,0
18.06.2018 16:00:00 24,9 12,8 9 5 27 15 E 20 60 0,0
18.06.2018 15:00:00 24,7 12,6 8 4 26 14 NE 20 60 0,0
18.06.2018 14:00:00 24,2 10,5 9 5 27 15 ESE 20 60 -
18.06.2018 13:00:00 22,6 10,0 8 4 27 14 ENE 20 60 0,0
18.06.2018 12:00:00 20,6 8,9 9 5 26 14 NE 20 60 0,0
18.06.2018 11:00:00 19,2 8,0 6 3 15 8 ENE 20 60 0,0
18.06.2018 10:00:00 17,0 6,8 5 3 21 11 ENE 20 60 0,0
18.06.2018 09:00:00 14,9 7,1 5 3 15 8 ENE 20 60 0,0
18.06.2018 08:00:00 12,2 7,3 4 2 10 5 NNE 20 31 -
18.06.2018 07:00:00 8,5 7,6 3 2 8 4 NNW 20 0 0,0
18.06.2018 06:00:00 8,7 7,6 1 1 5 3 NNW 20 0 0,0
18.06.2018 05:00:00 9,5 8,1 3 2 9 5 N 20 0 0,0
18.06.2018 04:00:00 9,9 8,1 6 3 9 5 NNW 20 0 0,0
18.06.2018 03:00:00 10,8 8,5 5 3 10 5 N 20 0 0,0
18.06.2018 02:00:00 11,1 8,5 4 2 8 5 N 20 0 -
18.06.2018 01:00:00 12,2 8,8 3 1 9 5 N 20 0 0,0
18.06.2018 00:00:00 13,5 8,0 4 2 11 6 NNE 20 0 0,0
17.06.2018 23:00:00 15,2 7,7 4 2 16 9 ENE 20 0 0,0
17.06.2018 22:00:00 17,7 8,0 6 3 18 10 E 20 0 0,0
17.06.2018 21:00:00 20,6 9,6 8 4 23 12 E 20 0 0,0
17.06.2018 20:00:00 23,2 8,1 8 4 21 11 E 20 49 -
17.06.2018 19:00:00 25,6 8,5 6 3 15 8 ESE 20 60 0,0
17.06.2018 18:00:00 25,3 9,6 6 4 16 9 NE 20 60 0,0
17.06.2018 17:00:00 25,1 10,2 4 2 15 8 ESE 20 60 0,0
17.06.2018 16:00:00 24,1 7,3 4 2 15 8 E 20 60 0,0
17.06.2018 15:00:00 23,1 8,8 5 3 16 9 NE 20 60 0,0
17.06.2018 14:00:00 21,7 10,2 5 3 18 10 NE 20 60 -
17.06.2018 13:00:00 20,4 8,7 8 4 18 10 ENE 20 60 0,0
17.06.2018 12:00:00 18,9 11,2 5 3 17 9 E 20 60 0,0
17.06.2018 11:00:00 16,7 11,0 5 3 18 10 E 20 56 0,0
17.06.2018 10:00:00 14,1 10,5 6 3 17 9 ENE 20 9 0,0
17.06.2018 09:00:00 12,6 10,3 4 2 16 8 ENE 20 24 0,0
17.06.2018 08:00:00 10,6 10,0 3 2 14 7 NNE 20 5 -
17.06.2018 07:00:00 9,0 8,4 2 1 6 3 N 20 0 0,0
17.06.2018 06:00:00 9,2 8,4 2 1 8 4 N 20 0 0,0
17.06.2018 05:00:00 9,3 8,5 3 2 12 7 N 20 0 0,0
17.06.2018 04:00:00 9,9 8,9 4 2 9 5 NNE 20 0 0,0
17.06.2018 03:00:00 10,3 9,2 2 1 10 5 E 20 0 0,0
17.06.2018 02:00:00 10,8 9,4 3 2 18 10 NE 20 0 -
17.06.2018 01:00:00 11,5 8,7 5 3 13 7 NE 20 0 0,0
17.06.2018 00:00:00 12,6 8,7 5 3 28 15 NE 20 0 0,0
16.06.2018 23:00:00 13,9 8,5 8 5 24 13 ENE 20 0 0,0
16.06.2018 22:00:00 16,1 9,3 6 4 26 14 E 20 0 0,0
16.06.2018 21:00:00 19,4 8,1 7 4 29 16 ENE 20 0 0,0
16.06.2018 20:00:00 22,2 5,1 10 5 26 14 E 20 49 -
16.06.2018 19:00:00 24,4 7,1 8 4 23 12 E 20 60 0,0
16.06.2018 18:00:00 25,1 7,7 6 4 19 10 E - 60 0,0
16.06.2018 17:00:00 25,1 7,3 5 3 16 9 ESE 20 60 0,0
16.06.2018 16:00:00 24,2 5,5 5 3 17 9 E 20 60 0,0
16.06.2018 15:00:00 23,4 6,2 6 3 19 10 E 20 60 0,0
16.06.2018 14:00:00 21,5 9,7 5 3 18 10 ENE 20 60 -
16.06.2018 13:00:00 20,0 10,6 4 2 15 8 NE 20 60 0,0
16.06.2018 12:00:00 17,5 10,9 7 4 18 10 N 20 60 0,0
16.06.2018 11:00:00 16,3 10,8 6 4 16 8 N 20 59 0,0
16.06.2018 10:00:00 15,4 10,5 6 3 18 10 ENE 20 56 0,0
16.06.2018 09:00:00 13,9 9,9 9 5 22 12 NE 20 60 0,0

tt = Température de l'air
td = dewpoint
ff = Vitesse du vent
fx = gusts
dd = Direction du vent
vv = visibility
sd = Ensoleillement
rr = Quantités de précipitations

stations d'obs. à proximité